Hayneville, Alabama
Current Conditions -  °F | °C
As of 5:53 AM on Thursday 23 Oct 2014 (Local Time) from KMGM Reporting Station
Clear Clear  
Wind Chill: 45°   Ceiling: Unl
Heat Index: 47°   Visibility: 9mi
Dew Point: 41°   Wind: 5mph
Humidity: 80%   Direction: 360°N
Pressure: 30.12"   Gusts: NA
Location:  32.18°N, 86.58°W
Report Text: KMGM 231053Z 36004KT 9SM CLR 08/05 A3012 RMK AO2 SLP199 T00830050
Loading
Personal Weather Stations






























Interactive Weather Map
Tropical Storm Tracking
New forecast layout! Learn more

10-Day Weather Forecast

Advertisements
Track Severe Weather on mobile